Time;durP1;ratioP1;P1;durP2;ratioP2;P2;SDS_P1;SDS_P2;PMS_P1;PMS_P2;Temp;Humidity;BMP_temperature;BMP_pressure;BME280_temperature;BME280_humidity;BME280_pressure;Samples;Min_cycle;Max_cycle;Signal;HPM_P1;HPM_P2
2023/06/24 00:01:27;;;;;;;5.87;5.07;;;;;;;15.91;97.57;101688.19;5062622;28;20206;-83
2023/06/24 00:03:53;;;;;;;4.83;4.33;;;;;;;15.92;95.75;101675.91;5048746;28;20203;-83
2023/06/24 00:06:20;;;;;;;5.23;4.80;;;;;;;15.65;89.82;101793.97;5061987;28;20248;-83
2023/06/24 00:08:46;;;;;;;5.77;5.27;;;;;;;15.63;89.46;101822.09;5061883;28;20252;-83
2023/06/24 00:11:13;;;;;;;4.90;4.50;;;;;;;15.61;89.32;101832.66;5062893;28;20224;-83
2023/06/24 00:13:40;;;;;;;5.33;4.43;;;;;;;15.49;89.42;101836.34;5060593;28;20236;-82
2023/06/24 00:16:08;;;;;;;5.40;4.77;;;;;;;15.61;90.93;101816.00;5061806;28;20222;-82
2023/06/24 00:18:35;;;;;;;4.93;4.53;;;;;;;15.63;89.57;101822.97;5061622;28;20206;-83
2023/06/24 00:21:02;;;;;;;9.07;4.90;;;;;;;15.83;93.73;101791.03;5062915;28;20225;-82
2023/06/24 00:23:30;;;;;;;6.73;4.53;;;;;;;15.79;90.38;101806.91;5055519;28;20210;-82
2023/06/24 00:25:57;;;;;;;4.90;4.50;;;;;;;15.89;94.37;101748.78;5054471;28;20207;-83
2023/06/24 00:28:24;;;;;;;5.57;5.07;;;;;;;15.97;96.58;101713.53;5062485;28;20232;-83
2023/06/24 00:30:50;;;;;;;5.03;4.53;;;;;;;16.03;97.46;101692.31;5063745;28;20206;-83
2023/06/24 00:33:19;;;;;;;4.90;4.53;;;;;;;16.02;96.16;101691.47;5063231;28;20660;-83
2023/06/24 00:35:46;;;;;;;7.23;4.50;;;;;;;16.01;95.18;101729.22;5062430;28;20203;-83
2023/06/24 00:38:12;;;;;;;7.87;4.83;;;;;;;16.02;95.31;101722.22;5062590;28;20199;-83
2023/06/24 00:40:39;;;;;;;5.40;4.90;;;;;;;16.02;95.93;101717.81;5064146;28;20198;-82
2023/06/24 00:43:06;;;;;;;5.13;4.63;;;;;;;16.02;96.74;101704.63;5063843;28;20687;-82
2023/06/24 00:45:33;;;;;;;4.93;4.33;;;;;;;16.02;97.41;101690.59;5063106;28;20198;-83
2023/06/24 00:48:00;;;;;;;5.50;4.77;;;;;;;15.99;97.82;101678.34;5063019;28;20733;-83
2023/06/24 00:50:28;;;;;;;4.70;4.30;;;;;;;15.91;97.88;101689.97;5064144;28;20627;-83
2023/06/24 00:52:54;;;;;;;6.27;4.97;;;;;;;15.92;98.69;101666.22;5056509;28;20207;-83
2023/06/24 00:55:21;;;;;;;4.97;4.57;;;;;;;15.86;98.91;101656.69;5054258;28;20248;-82
2023/06/24 00:57:50;;;;;;;5.00;4.40;;;;;;;15.87;99.32;101650.50;5061924;28;20236;-81
2023/06/24 01:00:18;;;;;;;5.50;5.00;;;;;;;15.93;100.00;101633.72;5062238;28;20198;-83
2023/06/24 01:02:45;;;;;;;5.27;4.77;;;;;;;15.95;100.00;101621.38;5053977;28;20209;-82
2023/06/24 01:05:12;;;;;;;5.33;4.10;;;;;;;15.88;97.84;101661.94;5061812;28;20202;-83
2023/06/24 01:07:42;;;;;;;5.33;4.03;;;;;;;15.91;98.22;101667.13;5061468;28;20292;-82
2023/06/24 01:10:12;;;;;;;5.17;4.77;;;;;;;15.95;98.60;101667.91;5062683;28;20232;-83
2023/06/24 01:12:40;;;;;;;5.07;4.57;;;;;;;15.96;98.06;101675.78;5063700;28;20673;-83
2023/06/24 01:15:08;;;;;;;4.90;4.47;;;;;;;15.95;97.58;101687.22;5052858;28;20322;-81
2023/06/24 01:17:39;;;;;;;4.93;4.53;;;;;;;15.92;96.83;101705.72;5060613;28;20229;-83
2023/06/24 01:20:11;;;;;;;4.67;4.23;;;;;;;15.94;96.70;101716.25;5060708;28;20240;-83
2023/06/24 01:23:16;;;;;;;5.03;4.70;;;;;;;15.95;97.94;101704.78;5055919;28;20202;-82
2023/06/24 01:26:14;;;;;;;5.70;4.13;;;;;;;15.89;98.68;101696.09;5055601;28;20205;-82
2023/06/24 01:29:09;;;;;;;4.67;4.27;;;;;;;15.75;95.83;101724.50;5060814;28;20201;-83
2023/06/24 01:31:42;;;;;;;5.07;4.57;;;;;;;15.75;97.22;101713.97;5061007;28;20624;-82
2023/06/24 01:34:16;;;;;;;5.07;4.50;;;;;;;15.75;97.74;101711.31;5060325;28;20427;-83
2023/06/24 01:36:48;;;;;;;4.67;4.37;;;;;;;15.77;98.76;101695.50;5060738;28;20279;-82
2023/06/24 01:39:18;;;;;;;6.80;4.60;;;;;;;15.77;99.15;101682.34;5060450;28;20202;-83
2023/06/24 01:41:52;;;;;;;5.07;4.67;;;;;;;15.78;99.97;101668.28;5061386;28;20239;-83
2023/06/24 01:44:19;;;;;;;5.37;4.87;;;;;;;15.79;100.00;101654.22;5061191;28;20233;-82
2023/06/24 01:46:53;;;;;;;4.73;4.33;;;;;;;15.76;100.00;101638.50;5060849;28;20229;-83
2023/06/24 01:49:22;;;;;;;5.30;4.87;;;;;;;15.73;100.00;101649.94;5061509;28;20569;-83
2023/06/24 01:51:50;;;;;;;5.73;5.13;;;;;;;15.70;100.00;101650.00;5061462;28;20215;-83
2023/06/24 01:54:20;;;;;;;5.27;4.77;;;;;;;15.72;100.00;101648.19;5053899;28;20221;-83
2023/06/24 01:56:48;;;;;;;4.47;4.17;;;;;;;15.72;100.00;101640.28;5062721;28;20226;-83
2023/06/24 01:59:17;;;;;;;4.77;4.40;;;;;;;15.66;99.50;101672.00;5061840;28;20239;-83
2023/06/24 02:01:45;;;;;;;5.43;4.90;;;;;;;15.66;100.00;101664.13;5061951;28;20918;-83
2023/06/24 02:04:15;;;;;;;5.93;4.90;;;;;;;15.66;100.00;101664.13;5063575;28;20676;-81
2023/06/24 02:06:43;;;;;;;5.40;4.73;;;;;;;15.67;100.00;101650.03;5071443;28;20244;-81
2023/06/24 02:09:11;;;;;;;7.03;5.20;;;;;;;15.68;100.00;101641.25;5070070;28;20236;-82
2023/06/24 02:11:39;;;;;;;6.53;4.90;;;;;;;15.65;100.00;101665.00;5066033;28;20205;-81
2023/06/24 02:14:06;;;;;;;5.23;4.30;;;;;;;15.61;99.64;101673.84;5064839;28;20222;-82
2023/06/24 02:16:34;;;;;;;5.17;4.67;;;;;;;15.59;99.86;101675.66;5057820;28;20229;-81
2023/06/24 02:19:02;;;;;;;4.97;4.47;;;;;;;15.59;100.00;101670.38;5056819;28;20289;-81
2023/06/24 02:21:30;;;;;;;6.63;4.57;;;;;;;15.54;99.92;101681.03;5062487;28;20589;-82
2023/06/24 02:23:58;;;;;;;5.30;4.90;;;;;;;15.49;98.56;101704.78;5055431;28;20206;-82
2023/06/24 02:26:25;;;;;;;4.87;4.43;;;;;;;15.44;98.52;101705.75;5063717;28;20233;-82
2023/06/24 02:28:54;;;;;;;4.77;4.37;;;;;;;15.49;99.22;101696.88;5062903;28;20216;-83
2023/06/24 02:31:20;;;;;;;5.33;4.83;;;;;;;15.46;99.46;101682.91;5064566;28;20193;-82
2023/06/24 02:33:46;;;;;;;5.67;4.80;;;;;;;15.39;99.76;101678.69;5064018;28;20205;-83
2023/06/24 02:36:13;;;;;;;5.47;4.97;;;;;;;15.38;99.06;101683.09;5064205;28;20229;-83
2023/06/24 02:38:42;;;;;;;8.20;5.17;;;;;;;15.42;100.00;101660.19;5063888;28;20748;-82
2023/06/24 02:41:08;;;;;;;5.03;4.60;;;;;;;15.45;100.00;101642.56;5063279;28;20205;-83
2023/06/24 02:43:35;;;;;;;5.03;4.53;;;;;;;15.49;100.00;101644.25;5062086;28;20232;-82
2023/06/24 02:46:04;;;;;;;4.97;4.67;;;;;;;15.52;100.00;101642.44;5053276;28;20233;-84
2023/06/24 02:48:33;;;;;;;6.17;5.67;;;;;;;15.55;100.00;101623.97;5060597;28;20213;-83
2023/06/24 02:51:01;;;;;;;5.23;4.83;;;;;;;15.54;100.00;101609.97;5061962;28;20214;-82
2023/06/24 02:53:28;;;;;;;5.43;4.93;;;;;;;15.51;100.00;101611.78;5050243;28;20213;-83
2023/06/24 02:55:57;;;;;;;6.23;5.73;;;;;;;15.48;100.00;101618.84;5051403;28;20263;-82
2023/06/24 02:58:31;;;;;;;4.90;4.50;;;;;;;15.46;100.00;101622.38;5057919;28;20210;-82
2023/06/24 03:00:59;;;;;;;5.17;4.87;;;;;;;15.47;100.00;101632.88;5063488;28;20210;-80
2023/06/24 03:03:27;;;;;;;5.97;5.50;;;;;;;15.45;100.00;101634.69;5058406;28;20208;-81
2023/06/24 03:05:56;;;;;;;4.60;4.23;;;;;;;15.48;100.00;101615.34;5058595;28;20206;-82
2023/06/24 03:08:24;;;;;;;6.40;5.10;;;;;;;15.46;100.00;101625.91;5057613;28;20236;-81
2023/06/24 03:10:51;;;;;;;5.93;4.87;;;;;;;15.44;100.00;101642.59;5058784;28;20205;-83
2023/06/24 03:13:19;;;;;;;5.33;4.83;;;;;;;15.38;100.00;101650.63;5058820;28;20236;-82
2023/06/24 03:15:45;;;;;;;5.63;4.90;;;;;;;15.38;100.00;101663.78;5058386;28;20253;-81
2023/06/24 03:18:12;;;;;;;5.33;5.03;;;;;;;15.34;100.00;101649.84;5058679;28;20263;-83
2023/06/24 03:20:39;;;;;;;5.40;5.00;;;;;;;15.31;100.00;101657.78;5059190;28;20209;-83
2023/06/24 03:23:06;;;;;;;5.37;4.97;;;;;;;15.32;100.00;101663.88;5050209;28;20230;-83
2023/06/24 03:25:32;;;;;;;5.13;4.73;;;;;;;15.36;100.00;101649.78;5051745;28;20202;-81
2023/06/24 03:28:00;;;;;;;8.50;5.37;;;;;;;15.39;100.00;101642.69;5058886;28;20226;-81
2023/06/24 03:30:28;;;;;;;5.07;4.57;;;;;;;15.34;100.00;101643.69;5043721;28;20205;-81
2023/06/24 03:32:55;;;;;;;6.57;4.73;;;;;;;15.32;100.00;101646.38;5058507;28;20204;-82
2023/06/24 03:35:22;;;;;;;5.40;5.00;;;;;;;15.35;100.00;101656.81;5058961;28;20263;-82
2023/06/24 03:37:48;;;;;;;5.53;5.13;;;;;;;15.26;100.00;101673.66;5051225;28;20258;-81
2023/06/24 03:40:15;;;;;;;5.60;5.03;;;;;;;15.31;100.00;101681.44;5059950;28;20227;-82
2023/06/24 03:42:41;;;;;;;5.20;4.33;;;;;;;15.31;100.00;101649.03;5060480;28;20205;-84
2023/06/24 03:45:08;;;;;;;6.97;5.53;;;;;;;15.25;100.00;101666.63;5060905;28;20197;-83
2023/06/24 03:47:35;;;;;;;5.00;4.60;;;;;;;15.24;100.00;101662.28;5061114;28;20236;-83
2023/06/24 03:50:02;;;;;;;5.87;5.40;;;;;;;15.01;100.00;101675.84;5061717;28;20671;-83
2023/06/24 03:52:29;;;;;;;5.90;5.20;;;;;;;15.02;100.00;101669.69;5058089;28;20210;-83
2023/06/24 03:54:55;;;;;;;6.73;5.73;;;;;;;14.92;100.00;101652.34;5057619;28;20229;-83
2023/06/24 03:57:22;;;;;;;5.67;5.27;;;;;;;14.86;100.00;101661.19;5054286;28;20232;-83
2023/06/24 03:59:48;;;;;;;5.23;4.83;;;;;;;14.97;100.00;101668.91;5061652;28;20270;-84
2023/06/24 04:02:15;;;;;;;6.33;5.83;;;;;;;15.08;100.00;101666.06;5062155;28;20209;-83
2023/06/24 04:04:43;;;;;;;5.97;5.37;;;;;;;15.07;100.00;101653.84;5061970;28;20212;-83
2023/06/24 04:07:09;;;;;;;5.17;4.77;;;;;;;15.14;100.00;101657.22;5062522;28;20251;-83
2023/06/24 04:09:36;;;;;;;5.50;5.00;;;;;;;15.14;100.00;101647.56;5071518;28;20240;-79
2023/06/24 04:12:02;;;;;;;5.73;5.33;;;;;;;15.07;100.00;101665.22;5069630;28;20277;-83
2023/06/24 04:14:29;;;;;;;7.63;5.20;;;;;;;14.73;97.12;101714.00;5052784;28;20205;-83
2023/06/24 04:16:55;;;;;;;5.77;5.30;;;;;;;14.81;99.07;101709.50;5061028;28;20224;-83
2023/06/24 04:19:22;;;;;;;6.23;4.80;;;;;;;14.70;96.61;101735.94;5061326;28;20765;-84
2023/06/24 04:21:49;;;;;;;5.23;4.83;;;;;;;14.89;99.54;101716.34;5062013;28;20212;-83
2023/06/24 04:24:16;;;;;;;5.80;5.17;;;;;;;15.05;100.00;101685.41;5053555;28;20230;-84
2023/06/24 04:26:42;;;;;;;5.43;5.03;;;;;;;15.06;100.00;101670.50;5063498;28;20228;-80
2023/06/24 04:29:08;;;;;;;6.33;4.97;;;;;;;15.18;100.00;101674.66;5062097;28;20270;-82
2023/06/24 04:31:35;;;;;;;10.43;5.10;;;;;;;15.10;99.46;101687.97;5061248;28;20235;-81
2023/06/24 04:34:01;;;;;;;5.47;4.97;;;;;;;15.14;98.42;101734.34;5061252;28;20260;-83
2023/06/24 04:36:27;;;;;;;6.47;5.20;;;;;;;15.18;98.29;101736.06;5061398;28;20605;-83
2023/06/24 04:38:56;;;;;;;5.20;4.80;;;;;;;15.21;99.44;101729.88;5059925;28;20212;-84
2023/06/24 04:41:22;;;;;;;6.17;5.50;;;;;;;15.30;100.00;101716.53;5061407;28;20233;-83
2023/06/24 04:43:49;;;;;;;5.83;5.27;;;;;;;15.27;98.04;101738.50;5051315;28;20213;-84
2023/06/24 04:46:16;;;;;;;5.30;4.90;;;;;;;15.29;98.45;101741.13;5060457;28;20248;-83
2023/06/24 04:48:42;;;;;;;5.30;4.70;;;;;;;15.22;96.23;101773.66;5061616;28;20219;-84
2023/06/24 04:51:08;;;;;;;5.90;5.37;;;;;;;15.18;94.33;101821.97;5058016;28;20636;-82
2023/06/24 04:53:35;;;;;;;6.00;5.57;;;;;;;15.27;95.24;101819.19;5048743;28;20209;-81
2023/06/24 04:56:02;;;;;;;5.47;5.07;;;;;;;15.23;96.24;101794.69;5057348;28;20290;-82
2023/06/24 04:58:29;;;;;;;5.47;5.07;;;;;;;15.34;97.25;101775.22;5057283;28;20204;-83
2023/06/24 05:00:55;;;;;;;6.97;5.47;;;;;;;15.31;96.89;101757.75;5058486;28;20210;-83
2023/06/24 05:03:21;;;;;;;5.67;5.27;;;;;;;15.25;96.18;101798.16;5054318;28;20225;-81
2023/06/24 05:05:56;;;;;;;5.03;4.63;;;;;;;15.29;96.86;101781.44;5109121;27;20571;-74
2023/06/24 05:08:22;;;;;;;4.93;4.53;;;;;;;15.32;95.94;101785.81;5108518;28;20272;-74
2023/06/24 05:10:48;;;;;;;5.63;5.10;;;;;;;15.28;95.48;101802.50;5089325;28;20607;-74
2023/06/24 05:13:15;;;;;;;6.47;5.43;;;;;;;15.21;95.00;101804.38;5088546;28;20282;-74
2023/06/24 05:15:41;;;;;;;5.50;5.00;;;;;;;15.38;96.24;101801.47;5089291;28;20201;-74
2023/06/24 05:18:07;;;;;;;6.30;5.17;;;;;;;15.39;93.07;101828.66;5088757;28;20211;-74
2023/06/24 05:20:34;;;;;;;5.27;4.87;;;;;;;15.46;93.53;101859.22;5089183;28;20277;-74
2023/06/24 05:23:01;;;;;;;6.50;5.90;;;;;;;15.54;93.94;101845.94;5088394;28;20213;-74
2023/06/24 05:25:28;;;;;;;7.97;4.90;;;;;;;15.46;93.65;101852.22;5088495;28;20919;-74
2023/06/24 05:27:54;;;;;;;5.73;5.27;;;;;;;15.42;95.06;101833.84;5081387;22;20305;-74
2023/06/24 05:30:21;;;;;;;5.93;5.37;;;;;;;15.62;97.17;101797.53;5028245;28;20226;-74
2023/06/24 05:32:47;;;;;;;5.73;5.23;;;;;;;15.65;95.07;101823.78;5028276;28;20219;-74
2023/06/24 05:35:14;;;;;;;6.00;5.40;;;;;;;15.69;94.36;101824.63;5027828;28;20649;-75
2023/06/24 05:37:40;;;;;;;5.70;5.10;;;;;;;15.61;92.94;101858.97;5027887;28;20207;-75
2023/06/24 05:40:09;;;;;;;6.20;5.20;;;;;;;15.74;93.54;101862.31;5028557;28;20292;-73
2023/06/24 05:42:36;;;;;;;6.53;5.93;;;;;;;15.85;93.68;101870.00;5028458;28;20690;-73
2023/06/24 05:45:02;;;;;;;6.37;5.87;;;;;;;15.88;96.76;101814.66;5027765;28;20237;-73
2023/06/24 05:47:29;;;;;;;6.20;5.60;;;;;;;15.68;95.62;101815.00;5028021;28;20199;-72
2023/06/24 05:49:55;;;;;;;8.03;6.00;;;;;;;15.69;96.87;101795.66;5028308;28;20281;-73
2023/06/24 05:52:21;;;;;;;6.83;6.17;;;;;;;15.71;97.80;101774.56;5027836;28;20214;-73
2023/06/24 05:54:48;;;;;;;6.63;6.03;;;;;;;15.74;99.09;101751.72;5027534;28;20210;-73
2023/06/24 05:57:15;;;;;;;6.50;6.10;;;;;;;15.68;98.68;101736.03;5028415;28;20261;-73
2023/06/24 05:59:42;;;;;;;6.97;6.23;;;;;;;15.79;99.28;101733.19;5027911;28;20226;-73
2023/06/24 06:02:08;;;;;;;6.57;5.97;;;;;;;15.95;99.93;101717.97;5027819;28;20268;-74
2023/06/24 06:04:35;;;;;;;5.80;5.33;;;;;;;16.00;99.52;101724.00;5027364;28;20288;-73
2023/06/24 06:07:01;;;;;;;6.40;5.90;;;;;;;16.05;100.00;101714.22;5027485;28;20207;-73
2023/06/24 06:09:27;;;;;;;6.70;5.93;;;;;;;16.17;100.00;101706.06;5027259;28;20712;-73
2023/06/24 06:11:54;;;;;;;6.80;6.20;;;;;;;16.26;100.00;101702.38;5028117;28;20260;-73
2023/06/24 06:14:21;;;;;;;9.63;6.50;;;;;;;16.28;98.32;101729.53;5035694;28;20206;-73
2023/06/24 06:16:48;;;;;;;6.00;5.43;;;;;;;16.43;97.45;101754.69;5016967;28;20211;-73
2023/06/24 06:19:14;;;;;;;6.20;5.70;;;;;;;16.50;97.08;101765.97;5014402;28;20226;-73
2023/06/24 06:21:41;;;;;;;5.80;5.30;;;;;;;16.60;97.26;101778.03;5014523;28;20199;-73
2023/06/24 06:24:08;;;;;;;6.43;5.80;;;;;;;16.62;95.69;101786.78;5013783;28;20264;-73
2023/06/24 06:26:34;;;;;;;7.03;6.27;;;;;;;16.66;94.37;101831.50;5014730;28;20256;-74
2023/06/24 06:29:00;;;;;;;6.90;5.93;;;;;;;16.63;92.71;101847.41;5014042;28;20242;-73
2023/06/24 06:31:28;;;;;;;6.23;5.63;;;;;;;16.69;92.61;101859.56;5013744;28;20600;-73
2023/06/24 06:33:54;;;;;;;6.87;6.13;;;;;;;16.86;93.73;101867.13;5014098;28;20261;-72
2023/06/24 06:36:21;;;;;;;6.47;5.97;;;;;;;16.88;92.18;101857.41;5012589;28;20211;-74
2023/06/24 06:38:48;;;;;;;5.83;5.43;;;;;;;16.81;89.33;101917.34;5013820;28;20223;-75
2023/06/24 06:41:14;;;;;;;6.93;6.23;;;;;;;16.95;91.41;101914.44;5012979;28;20610;-75
2023/06/24 06:43:40;;;;;;;5.93;5.50;;;;;;;17.05;93.56;101878.16;5013639;28;20213;-75
2023/06/24 06:46:07;;;;;;;6.17;5.57;;;;;;;17.12;92.54;101865.69;5013562;28;20229;-74
2023/06/24 06:48:34;;;;;;;6.40;5.80;;;;;;;17.13;91.26;101915.78;5013709;28;20203;-75
2023/06/24 06:51:01;;;;;;;6.13;5.60;;;;;;;17.16;87.81;101930.66;5011383;28;20213;-75
2023/06/24 06:53:27;;;;;;;6.43;5.90;;;;;;;17.20;86.22;101993.88;5012226;28;20293;-73
2023/06/24 06:55:54;;;;;;;5.83;5.30;;;;;;;17.28;86.60;102014.84;5014525;28;20257;-73
2023/06/24 06:58:20;;;;;;;5.93;5.53;;;;;;;17.32;84.36;102055.25;5013825;28;20207;-73
2023/06/24 07:00:46;;;;;;;7.07;6.47;;;;;;;17.36;84.48;102065.72;5012574;28;20241;-73
2023/06/24 07:03:13;;;;;;;5.10;4.80;;;;;;;17.39;84.97;102064.78;5012428;28;20218;-73
2023/06/24 07:05:41;;;;;;;5.30;4.90;;;;;;;17.43;82.62;102099.00;5013402;28;20223;-73
2023/06/24 07:08:07;;;;;;;5.97;5.53;;;;;;;17.52;84.18;102090.03;5013209;28;20215;-74
2023/06/24 07:10:34;;;;;;;6.00;5.60;;;;;;;17.55;82.90;102120.78;5013588;28;20286;-73
2023/06/24 07:13:00;;;;;;;5.70;5.20;;;;;;;17.63;85.31;102089.78;5012977;28;20620;-73
2023/06/24 07:15:26;;;;;;;5.63;5.10;;;;;;;17.64;82.53;102110.00;5013407;28;20237;-73
2023/06/24 07:17:53;;;;;;;5.37;4.97;;;;;;;17.60;80.59;102124.16;5012810;28;20212;-73
2023/06/24 07:20:20;;;;;;;7.33;4.67;;;;;;;17.63;78.74;102190.13;5021392;28;20588;-73
2023/06/24 07:22:48;;;;;;;5.50;5.10;;;;;;;17.75;82.33;102147.59;5012528;28;20250;-73
2023/06/24 07:25:15;;;;;;;4.67;4.27;;;;;;;17.86;82.54;102110.44;5012889;28;20287;-73
2023/06/24 07:27:41;;;;;;;6.43;5.83;;;;;;;17.91;78.35;102201.03;5012207;28;20216;-74
2023/06/24 07:30:09;;;;;;;13.57;12.10;;;;;;;17.99;78.60;102222.84;5012650;28;20662;-74
2023/06/24 07:32:35;;;;;;;5.73;5.07;;;;;;;18.08;78.82;102211.25;5012678;28;20209;-73
2023/06/24 07:35:01;;;;;;;5.80;5.30;;;;;;;18.15;78.33;102219.88;5012684;28;20208;-73
2023/06/24 07:37:28;;;;;;;5.10;4.47;;;;;;;18.20;79.80;102210.97;5012197;28;20213;-73
2023/06/24 07:39:55;;;;;;;6.10;4.13;;;;;;;18.24;78.20;102222.34;5013238;28;20237;-73
2023/06/24 07:42:22;;;;;;;4.20;3.80;;;;;;;18.24;75.04;102264.63;5013041;28;20212;-73
2023/06/24 07:44:49;;;;;;;4.30;4.00;;;;;;;18.35;74.96;102314.63;5012181;28;20233;-73
2023/06/24 07:47:17;;;;;;;3.97;3.67;;;;;;;18.37;70.44;102403.59;5012563;28;20704;-73
2023/06/24 07:49:43;;;;;;;4.60;4.20;;;;;;;18.49;71.45;102443.91;5012918;28;20229;-73
2023/06/24 07:52:10;;;;;;;3.57;3.27;;;;;;;18.53;70.15;102454.41;5012486;28;20217;-73
2023/06/24 07:54:36;;;;;;;3.40;3.10;;;;;;;18.59;70.34;102495.72;5015065;28;20210;-73
2023/06/24 07:57:04;;;;;;;3.93;3.53;;;;;;;18.72;70.27;102485.78;5012826;28;20663;-73
2023/06/24 07:59:31;;;;;;;3.47;3.20;;;;;;;18.75;67.62;102547.47;5012408;28;20284;-73
2023/06/24 08:01:57;;;;;;;3.90;3.47;;;;;;;18.80;68.14;102572.06;5012517;28;20209;-73
2023/06/24 08:04:24;;;;;;;5.87;3.93;;;;;;;18.89;68.90;102551.63;5012069;28;20738;-73
2023/06/24 08:06:50;;;;;;;3.83;3.53;;;;;;;18.86;65.71;102605.47;5012243;28;20666;-73
2023/06/24 08:09:17;;;;;;;3.30;3.03;;;;;;;18.85;63.71;102640.81;5011677;28;20234;-73
2023/06/24 08:11:44;;;;;;;3.77;3.30;;;;;;;18.91;65.59;102659.22;5012167;28;20271;-73
2023/06/24 08:14:11;;;;;;;3.33;3.13;;;;;;;18.96;66.00;102595.59;5012135;28;20241;-74
2023/06/24 08:16:38;;;;;;;3.20;2.90;;;;;;;19.03;62.94;102651.03;5012591;28;20205;-73
2023/06/24 08:19:04;;;;;;;2.90;2.70;;;;;;;19.10;58.21;102710.03;5012595;28;20233;-74
2023/06/24 08:21:31;;;;;;;2.90;2.20;;;;;;;19.22;58.64;102783.06;5011997;28;20218;-74
2023/06/24 08:23:57;;;;;;;2.50;2.30;;;;;;;19.27;57.55;102865.97;5011812;28;20213;-73
2023/06/24 08:26:23;;;;;;;2.83;2.63;;;;;;;19.40;57.02;102859.53;5012049;28;20234;-73
2023/06/24 08:28:50;;;;;;;3.00;2.80;;;;;;;19.48;59.89;102848.81;5011321;28;20303;-73
2023/06/24 08:31:18;;;;;;;3.77;2.77;;;;;;;19.51;59.13;102834.66;5012046;28;20683;-74
2023/06/24 08:33:45;;;;;;;3.27;2.97;;;;;;;19.54;61.67;102778.97;5012200;28;20284;-74
2023/06/24 08:36:12;;;;;;;3.33;3.03;;;;;;;19.41;61.06;102754.50;5011871;28;20576;-73
2023/06/24 08:38:39;;;;;;;4.10;3.50;;;;;;;19.44;63.41;102690.84;5009626;28;20750;-73
2023/06/24 08:41:05;;;;;;;3.37;3.10;;;;;;;19.64;68.73;102550.91;5011533;28;20261;-73
2023/06/24 08:43:31;;;;;;;3.57;3.30;;;;;;;19.66;66.74;102534.94;5011799;28;20205;-73
2023/06/24 08:45:58;;;;;;;4.00;3.70;;;;;;;19.74;66.57;102503.88;5011925;28;20260;-73
2023/06/24 08:48:27;;;;;;;3.97;3.67;;;;;;;19.81;65.86;102489.56;5019665;28;20765;-74
2023/06/24 08:50:58;;;;;;;3.70;3.40;;;;;;;19.84;65.40;102497.44;5011921;28;20670;-74
2023/06/24 08:53:27;;;;;;;4.10;3.80;;;;;;;19.80;66.69;102466.63;5011089;28;20209;-74
2023/06/24 08:55:55;;;;;;;4.47;4.00;;;;;;;19.88;67.70;102445.25;5011906;28;20265;-74
2023/06/24 08:58:21;;;;;;;4.30;4.00;;;;;;;19.92;68.71;102414.19;5011500;28;20218;-73
2023/06/24 09:00:48;;;;;;;4.83;4.33;;;;;;;20.08;68.84;102396.09;5011770;28;20206;-74
2023/06/24 09:03:15;;;;;;;4.97;4.37;;;;;;;20.14;68.96;102346.44;5012174;28;20232;-73
2023/06/24 09:05:44;;;;;;;4.60;4.20;;;;;;;20.15;69.88;102310.16;5003414;28;20276;-74
2023/06/24 09:08:10;;;;;;;4.67;4.20;;;;;;;20.22;69.60;102333.81;5011093;28;20221;-73
2023/06/24 09:10:38;;;;;;;4.50;4.10;;;;;;;20.24;68.89;102347.91;5011564;28;20353;-73
2023/06/24 09:13:06;;;;;;;4.27;3.97;;;;;;;20.31;70.12;102331.81;5011545;28;20218;-74
2023/06/24 09:15:33;;;;;;;4.77;4.37;;;;;;;20.41;69.00;102326.16;5011209;28;20602;-74
2023/06/24 09:18:00;;;;;;;4.77;4.37;;;;;;;20.43;69.30;102350.00;5011473;28;20268;-74
2023/06/24 09:20:27;;;;;;;5.70;4.33;;;;;;;20.49;69.55;102325.94;5011187;28;20760;-73
2023/06/24 09:23:00;;;;;;;5.07;4.30;;;;;;;20.42;71.36;102314.66;5011038;28;20741;-74
2023/06/24 09:25:27;;;;;;;4.13;3.83;;;;;;;20.54;70.77;102260.34;5011479;28;20600;-73
2023/06/24 09:27:55;;;;;;;4.13;3.83;;;;;;;20.68;70.54;102275.00;5011535;28;20219;-73
2023/06/24 09:30:23;;;;;;;4.60;4.13;;;;;;;20.80;69.66;102287.88;5011410;28;20234;-73
2023/06/24 09:32:51;;;;;;;7.20;4.80;;;;;;;20.87;68.47;102325.69;5011300;28;20222;-73
2023/06/24 09:35:19;;;;;;;4.07;3.80;;;;;;;20.93;70.27;102299.84;5011387;28;20260;-74
2023/06/24 09:37:50;;;;;;;4.80;4.40;;;;;;;20.90;68.47;102315.00;5015347;28;20210;-73
2023/06/24 09:40:18;;;;;;;4.30;3.97;;;;;;;20.97;70.24;102301.47;5015185;28;20629;-74
2023/06/24 09:42:52;;;;;;;5.23;4.07;;;;;;;20.95;67.09;102355.53;5002182;28;20213;-73
2023/06/24 09:45:27;;;;;;;4.00;3.80;;;;;;;20.97;67.11;102364.31;5010875;28;20280;-74
2023/06/24 09:47:53;;;;;;;8.10;5.23;;;;;;;21.08;69.34;102337.44;5010827;28;20764;-73
2023/06/24 09:50:20;;;;;;;3.53;3.33;;;;;;;21.20;66.35;102345.00;5010773;28;20307;-74
2023/06/24 09:52:49;;;;;;;4.37;3.97;;;;;;;21.33;68.49;102342.81;5014010;28;20603;-73
2023/06/24 09:55:18;;;;;;;5.17;3.97;;;;;;;21.45;68.62;102329.13;5014857;28;20206;-73
2023/06/24 09:57:46;;;;;;;4.00;3.70;;;;;;;21.45;65.57;102376.06;5014525;28;20304;-73
2023/06/24 10:00:16;;;;;;;3.93;3.53;;;;;;;21.35;63.57;102453.41;5014641;28;20230;-73
2023/06/24 10:02:43;;;;;;;3.97;3.67;;;;;;;21.45;65.14;102431.88;5013628;28;20206;-74
2023/06/24 10:05:09;;;;;;;4.50;4.10;;;;;;;21.50;65.10;102427.28;5014757;28;20264;-73
2023/06/24 10:07:39;;;;;;;3.97;3.67;;;;;;;21.51;66.74;102394.50;5014002;28;20210;-73
2023/06/24 10:10:07;;;;;;;3.90;3.57;;;;;;;21.51;68.78;102344.88;5014981;28;20226;-74
2023/06/24 10:12:36;;;;;;;4.47;3.40;;;;;;;21.52;65.55;102380.25;5014158;28;20210;-72
2023/06/24 10:15:03;;;;;;;3.87;3.67;;;;;;;21.64;67.49;102341.78;5013494;28;20268;-74
2023/06/24 10:17:30;;;;;;;4.03;3.73;;;;;;;21.73;67.53;102323.72;5014262;28;20256;-75
2023/06/24 10:19:57;;;;;;;3.90;3.63;;;;;;;21.80;66.02;102350.94;5014634;28;20234;-74
2023/06/24 10:22:25;;;;;;;4.13;3.73;;;;;;;21.68;66.06;102386.78;5014230;28;20268;-73
2023/06/24 10:24:53;;;;;;;4.00;3.70;;;;;;;21.79;67.02;102350.06;5014325;28;20265;-73
2023/06/24 10:27:21;;;;;;;4.50;4.00;;;;;;;21.95;65.36;102368.16;5014108;28;20235;-74
2023/06/24 10:29:50;;;;;;;3.93;3.73;;;;;;;22.02;64.96;102385.59;5022741;28;20226;-74
2023/06/24 10:32:18;;;;;;;4.43;4.03;;;;;;;22.09;64.28;102408.41;5014529;28;20269;-74
2023/06/24 10:34:45;;;;;;;4.30;4.00;;;;;;;22.11;64.31;102419.00;5014071;28;20209;-73
2023/06/24 10:37:18;;;;;;;4.27;3.97;;;;;;;22.09;63.95;102392.44;5013888;28;20202;-73
2023/06/24 10:39:50;;;;;;;4.03;3.67;;;;;;;22.16;64.93;102380.66;5013056;28;20223;-74
2023/06/24 10:42:30;;;;;;;3.90;3.60;;;;;;;22.16;63.86;102393.06;5013909;28;20214;-74
2023/06/24 10:44:59;;;;;;;4.40;4.10;;;;;;;22.24;64.43;102398.13;5014389;28;20269;-74
2023/06/24 10:47:27;;;;;;;4.30;4.00;;;;;;;22.20;63.48;102405.38;5013961;28;20265;-74
2023/06/24 10:49:54;;;;;;;4.13;3.83;;;;;;;22.22;64.45;102366.28;5013506;28;20289;-73
2023/06/24 10:52:22;;;;;;;4.87;4.37;;;;;;;22.30;65.60;102329.63;5013596;28;20206;-73
2023/06/24 10:54:49;;;;;;;4.60;4.30;;;;;;;22.42;65.93;102315.00;5013272;28;20742;-74
2023/06/24 10:57:15;;;;;;;4.87;4.40;;;;;;;22.50;65.80;102304.91;5014069;28;20206;-73
2023/06/24 10:59:42;;;;;;;4.27;3.90;;;;;;;22.57;67.03;102242.50;5012858;28;20692;-74
2023/06/24 11:02:13;;;;;;;5.00;4.60;;;;;;;22.69;65.28;102273.09;5013645;28;20206;-73
2023/06/24 11:04:44;;;;;;;4.13;3.93;;;;;;;22.63;63.95;102355.00;5012919;28;20203;-73
2023/06/24 11:07:11;;;;;;;4.23;3.93;;;;;;;22.56;62.37;102357.91;5013816;28;20226;-73
2023/06/24 11:09:37;;;;;;;4.60;4.20;;;;;;;22.80;65.59;102334.78;5013342;28;20233;-73
2023/06/24 11:12:05;;;;;;;4.40;4.10;;;;;;;23.06;68.37;102213.00;5009863;28;20838;-73
2023/06/24 11:14:33;;;;;;;5.07;4.67;;;;;;;22.87;62.83;102343.38;5004153;28;20752;-73
2023/06/24 11:17:01;;;;;;;5.30;4.33;;;;;;;23.07;64.18;102326.63;5008516;28;20199;-73
2023/06/24 11:19:30;;;;;;;4.63;4.33;;;;;;;22.98;64.57;102346.47;5013469;28;20256;-73
2023/06/24 11:22:00;;;;;;;3.97;3.70;;;;;;;23.15;64.54;102331.63;5013282;28;20209;-73
2023/06/24 11:24:26;;;;;;;4.67;4.37;;;;;;;23.37;65.38;102287.16;5011968;28;20648;-73
2023/06/24 11:26:52;;;;;;;4.40;4.10;;;;;;;23.46;62.08;102333.00;5013588;28;20231;-73